sensor_id;sensor_type;location;lat;lon;timestamp;P1;durP1;ratioP1;P2;durP2;ratioP2
1380;SDS011;684;48.342;10.096;2023-11-18T00:01:06;5.60;;;3.13;;
1380;SDS011;684;48.342;10.096;2023-11-18T00:03:33;5.23;;;2.80;;
1380;SDS011;684;48.342;10.096;2023-11-18T00:06:00;4.70;;;2.70;;
1380;SDS011;684;48.342;10.096;2023-11-18T00:08:28;4.83;;;2.70;;
1380;SDS011;684;48.342;10.096;2023-11-18T00:10:56;4.90;;;2.70;;
1380;SDS011;684;48.342;10.096;2023-11-18T00:13:24;4.57;;;2.27;;
1380;SDS011;684;48.342;10.096;2023-11-18T00:15:51;4.47;;;2.40;;
1380;SDS011;684;48.342;10.096;2023-11-18T00:18:18;6.43;;;2.97;;
1380;SDS011;684;48.342;10.096;2023-11-18T00:20:45;4.20;;;2.13;;
1380;SDS011;684;48.342;10.096;2023-11-18T00:23:11;4.47;;;2.47;;
1380;SDS011;684;48.342;10.096;2023-11-18T00:25:38;5.20;;;2.83;;
1380;SDS011;684;48.342;10.096;2023-11-18T00:28:05;5.83;;;3.03;;
1380;SDS011;684;48.342;10.096;2023-11-18T00:30:34;4.53;;;2.53;;
1380;SDS011;684;48.342;10.096;2023-11-18T00:33:01;4.90;;;2.57;;
1380;SDS011;684;48.342;10.096;2023-11-18T00:35:28;5.43;;;2.97;;
1380;SDS011;684;48.342;10.096;2023-11-18T00:37:57;5.20;;;3.30;;
1380;SDS011;684;48.342;10.096;2023-11-18T00:40:23;5.27;;;2.83;;
1380;SDS011;684;48.342;10.096;2023-11-18T00:42:50;4.47;;;2.57;;
1380;SDS011;684;48.342;10.096;2023-11-18T00:45:17;5.90;;;3.07;;
1380;SDS011;684;48.342;10.096;2023-11-18T00:47:45;5.83;;;2.40;;
1380;SDS011;684;48.342;10.096;2023-11-18T00:50:12;5.17;;;2.93;;
1380;SDS011;684;48.342;10.096;2023-11-18T00:52:39;5.20;;;2.60;;
1380;SDS011;684;48.342;10.096;2023-11-18T00:55:07;4.80;;;2.57;;
1380;SDS011;684;48.342;10.096;2023-11-18T00:57:35;5.73;;;2.77;;
1380;SDS011;684;48.342;10.096;2023-11-18T01:00:04;5.10;;;2.77;;
1380;SDS011;684;48.342;10.096;2023-11-18T01:02:31;5.03;;;2.50;;
1380;SDS011;684;48.342;10.096;2023-11-18T01:05:00;4.80;;;2.53;;
1380;SDS011;684;48.342;10.096;2023-11-18T01:07:26;4.80;;;3.03;;
1380;SDS011;684;48.342;10.096;2023-11-18T01:09:53;5.40;;;2.73;;
1380;SDS011;684;48.342;10.096;2023-11-18T01:12:20;4.80;;;2.53;;
1380;SDS011;684;48.342;10.096;2023-11-18T01:14:47;4.90;;;2.70;;
1380;SDS011;684;48.342;10.096;2023-11-18T01:17:13;8.00;;;3.10;;
1380;SDS011;684;48.342;10.096;2023-11-18T01:19:41;4.40;;;2.27;;
1380;SDS011;684;48.342;10.096;2023-11-18T01:22:10;7.03;;;2.70;;
1380;SDS011;684;48.342;10.096;2023-11-18T01:24:37;4.97;;;2.63;;
1380;SDS011;684;48.342;10.096;2023-11-18T01:27:04;5.23;;;2.50;;
1380;SDS011;684;48.342;10.096;2023-11-18T01:29:32;8.30;;;2.57;;
1380;SDS011;684;48.342;10.096;2023-11-18T01:31:59;5.50;;;3.10;;
1380;SDS011;684;48.342;10.096;2023-11-18T01:34:33;5.50;;;3.00;;
1380;SDS011;684;48.342;10.096;2023-11-18T01:37:01;4.40;;;2.43;;
1380;SDS011;684;48.342;10.096;2023-11-18T01:39:29;5.80;;;2.60;;
1380;SDS011;684;48.342;10.096;2023-11-18T01:41:56;5.40;;;2.53;;
1380;SDS011;684;48.342;10.096;2023-11-18T01:44:24;11.43;;;3.83;;
1380;SDS011;684;48.342;10.096;2023-11-18T01:46:53;5.77;;;2.57;;
1380;SDS011;684;48.342;10.096;2023-11-18T01:49:20;4.70;;;2.30;;
1380;SDS011;684;48.342;10.096;2023-11-18T01:51:47;4.97;;;2.13;;
1380;SDS011;684;48.342;10.096;2023-11-18T01:54:17;5.40;;;2.73;;
1380;SDS011;684;48.342;10.096;2023-11-18T01:56:46;4.60;;;2.40;;
1380;SDS011;684;48.342;10.096;2023-11-18T01:59:14;5.33;;;3.03;;
1380;SDS011;684;48.342;10.096;2023-11-18T02:01:44;5.60;;;2.50;;
1380;SDS011;684;48.342;10.096;2023-11-18T02:04:14;4.70;;;2.40;;
1380;SDS011;684;48.342;10.096;2023-11-18T02:06:41;4.87;;;2.40;;
1380;SDS011;684;48.342;10.096;2023-11-18T02:09:09;5.97;;;2.87;;
1380;SDS011;684;48.342;10.096;2023-11-18T02:11:39;5.10;;;2.60;;
1380;SDS011;684;48.342;10.096;2023-11-18T02:14:13;6.70;;;2.90;;
1380;SDS011;684;48.342;10.096;2023-11-18T02:16:42;5.53;;;2.50;;
1380;SDS011;684;48.342;10.096;2023-11-18T02:19:14;4.90;;;2.50;;
1380;SDS011;684;48.342;10.096;2023-11-18T02:21:46;5.87;;;2.60;;
1380;SDS011;684;48.342;10.096;2023-11-18T02:24:24;5.90;;;2.60;;
1380;SDS011;684;48.342;10.096;2023-11-18T02:26:53;4.90;;;2.40;;
1380;SDS011;684;48.342;10.096;2023-11-18T02:29:20;5.60;;;2.50;;
1380;SDS011;684;48.342;10.096;2023-11-18T02:31:47;6.13;;;3.07;;
1380;SDS011;684;48.342;10.096;2023-11-18T02:34:19;5.10;;;2.50;;
1380;SDS011;684;48.342;10.096;2023-11-18T02:36:53;6.20;;;2.80;;
1380;SDS011;684;48.342;10.096;2023-11-18T02:39:25;4.97;;;2.60;;
1380;SDS011;684;48.342;10.096;2023-11-18T02:41:57;5.17;;;2.50;;
1380;SDS011;684;48.342;10.096;2023-11-18T02:44:27;5.23;;;2.30;;
1380;SDS011;684;48.342;10.096;2023-11-18T02:46:57;5.30;;;2.67;;
1380;SDS011;684;48.342;10.096;2023-11-18T02:49:24;5.10;;;2.70;;
1380;SDS011;684;48.342;10.096;2023-11-18T02:51:52;4.87;;;2.60;;
1380;SDS011;684;48.342;10.096;2023-11-18T02:54:20;4.40;;;2.13;;
1380;SDS011;684;48.342;10.096;2023-11-18T02:56:47;4.53;;;2.20;;
1380;SDS011;684;48.342;10.096;2023-11-18T02:59:15;4.60;;;2.10;;
1380;SDS011;684;48.342;10.096;2023-11-18T03:01:42;5.07;;;2.50;;
1380;SDS011;684;48.342;10.096;2023-11-18T03:04:09;4.83;;;2.23;;
1380;SDS011;684;48.342;10.096;2023-11-18T03:06:36;4.97;;;2.33;;
1380;SDS011;684;48.342;10.096;2023-11-18T03:09:03;4.90;;;2.33;;
1380;SDS011;684;48.342;10.096;2023-11-18T03:11:33;5.07;;;2.63;;
1380;SDS011;684;48.342;10.096;2023-11-18T03:14:00;4.83;;;2.57;;
1380;SDS011;684;48.342;10.096;2023-11-18T03:16:31;5.00;;;2.10;;
1380;SDS011;684;48.342;10.096;2023-11-18T03:18:58;4.47;;;1.90;;
1380;SDS011;684;48.342;10.096;2023-11-18T03:21:26;6.53;;;3.07;;
1380;SDS011;684;48.342;10.096;2023-11-18T03:23:53;5.70;;;3.80;;
1380;SDS011;684;48.342;10.096;2023-11-18T03:26:19;3.93;;;1.63;;
1380;SDS011;684;48.342;10.096;2023-11-18T03:28:46;4.70;;;2.40;;
1380;SDS011;684;48.342;10.096;2023-11-18T03:31:13;5.60;;;2.50;;
1380;SDS011;684;48.342;10.096;2023-11-18T03:33:42;4.80;;;2.13;;
1380;SDS011;684;48.342;10.096;2023-11-18T03:36:09;4.73;;;1.87;;
1380;SDS011;684;48.342;10.096;2023-11-18T03:38:37;5.07;;;2.30;;
1380;SDS011;684;48.342;10.096;2023-11-18T03:41:03;4.80;;;2.30;;
1380;SDS011;684;48.342;10.096;2023-11-18T03:43:30;4.90;;;2.30;;
1380;SDS011;684;48.342;10.096;2023-11-18T03:45:57;6.80;;;2.30;;
1380;SDS011;684;48.342;10.096;2023-11-18T03:48:24;4.30;;;2.17;;
1380;SDS011;684;48.342;10.096;2023-11-18T03:50:52;5.50;;;1.97;;
1380;SDS011;684;48.342;10.096;2023-11-18T03:53:19;4.87;;;2.43;;
1380;SDS011;684;48.342;10.096;2023-11-18T03:55:45;4.70;;;2.50;;
1380;SDS011;684;48.342;10.096;2023-11-18T03:58:12;5.13;;;2.73;;
1380;SDS011;684;48.342;10.096;2023-11-18T04:00:39;4.87;;;2.50;;
1380;SDS011;684;48.342;10.096;2023-11-18T04:03:05;6.00;;;2.60;;
1380;SDS011;684;48.342;10.096;2023-11-18T04:05:33;6.50;;;2.97;;
1380;SDS011;684;48.342;10.096;2023-11-18T04:08:04;4.87;;;2.37;;
1380;SDS011;684;48.342;10.096;2023-11-18T04:10:31;4.43;;;2.17;;
1380;SDS011;684;48.342;10.096;2023-11-18T04:12:58;4.40;;;2.37;;
1380;SDS011;684;48.342;10.096;2023-11-18T04:15:25;5.07;;;2.60;;
1380;SDS011;684;48.342;10.096;2023-11-18T04:17:52;5.30;;;2.20;;
1380;SDS011;684;48.342;10.096;2023-11-18T04:20:18;6.30;;;2.97;;
1380;SDS011;684;48.342;10.096;2023-11-18T04:22:45;5.87;;;2.77;;
1380;SDS011;684;48.342;10.096;2023-11-18T04:25:13;5.63;;;2.87;;
1380;SDS011;684;48.342;10.096;2023-11-18T04:27:41;6.33;;;2.73;;
1380;SDS011;684;48.342;10.096;2023-11-18T04:30:08;5.03;;;2.70;;
1380;SDS011;684;48.342;10.096;2023-11-18T04:32:35;4.90;;;2.40;;
1380;SDS011;684;48.342;10.096;2023-11-18T04:35:02;6.97;;;3.17;;
1380;SDS011;684;48.342;10.096;2023-11-18T04:37:33;5.27;;;2.67;;
1380;SDS011;684;48.342;10.096;2023-11-18T04:40:00;5.40;;;3.00;;
1380;SDS011;684;48.342;10.096;2023-11-18T04:42:29;4.57;;;2.30;;
1380;SDS011;684;48.342;10.096;2023-11-18T04:44:56;5.67;;;3.00;;
1380;SDS011;684;48.342;10.096;2023-11-18T04:47:24;5.50;;;2.83;;
1380;SDS011;684;48.342;10.096;2023-11-18T04:49:52;5.60;;;3.40;;
1380;SDS011;684;48.342;10.096;2023-11-18T04:52:19;6.20;;;3.00;;
1380;SDS011;684;48.342;10.096;2023-11-18T04:54:45;5.90;;;3.03;;
1380;SDS011;684;48.342;10.096;2023-11-18T04:57:13;6.70;;;3.63;;
1380;SDS011;684;48.342;10.096;2023-11-18T04:59:41;6.10;;;3.57;;
1380;SDS011;684;48.342;10.096;2023-11-18T05:02:08;6.33;;;3.40;;
1380;SDS011;684;48.342;10.096;2023-11-18T05:04:35;5.80;;;3.20;;
1380;SDS011;684;48.342;10.096;2023-11-18T05:07:02;5.70;;;3.40;;
1380;SDS011;684;48.342;10.096;2023-11-18T05:09:31;5.97;;;3.27;;
1380;SDS011;684;48.342;10.096;2023-11-18T05:11:59;5.77;;;2.97;;
1380;SDS011;684;48.342;10.096;2023-11-18T05:14:26;6.50;;;4.07;;
1380;SDS011;684;48.342;10.096;2023-11-18T05:16:55;5.97;;;3.40;;
1380;SDS011;684;48.342;10.096;2023-11-18T05:19:22;5.87;;;3.30;;
1380;SDS011;684;48.342;10.096;2023-11-18T05:21:48;6.47;;;3.30;;
1380;SDS011;684;48.342;10.096;2023-11-18T05:24:15;5.77;;;3.63;;
1380;SDS011;684;48.342;10.096;2023-11-18T05:26:42;7.03;;;3.83;;
1380;SDS011;684;48.342;10.096;2023-11-18T05:29:09;7.17;;;3.80;;
1380;SDS011;684;48.342;10.096;2023-11-18T05:31:41;5.40;;;3.00;;
1380;SDS011;684;48.342;10.096;2023-11-18T05:34:09;7.40;;;3.63;;
1380;SDS011;684;48.342;10.096;2023-11-18T05:36:37;5.90;;;2.90;;
1380;SDS011;684;48.342;10.096;2023-11-18T05:39:05;5.90;;;3.20;;
1380;SDS011;684;48.342;10.096;2023-11-18T05:41:34;6.97;;;3.50;;
1380;SDS011;684;48.342;10.096;2023-11-18T05:44:01;5.80;;;3.10;;
1380;SDS011;684;48.342;10.096;2023-11-18T05:46:28;6.30;;;3.47;;
1380;SDS011;684;48.342;10.096;2023-11-18T05:48:55;5.70;;;3.67;;
1380;SDS011;684;48.342;10.096;2023-11-18T05:51:24;5.83;;;3.37;;
1380;SDS011;684;48.342;10.096;2023-11-18T05:53:52;5.87;;;3.70;;
1380;SDS011;684;48.342;10.096;2023-11-18T05:56:20;6.93;;;4.40;;
1380;SDS011;684;48.342;10.096;2023-11-18T05:58:48;6.23;;;3.70;;
1380;SDS011;684;48.342;10.096;2023-11-18T06:01:15;7.50;;;3.40;;
1380;SDS011;684;48.342;10.096;2023-11-18T06:03:42;6.60;;;3.73;;
1380;SDS011;684;48.342;10.096;2023-11-18T06:06:12;6.20;;;3.47;;
1380;SDS011;684;48.342;10.096;2023-11-18T06:08:43;6.50;;;3.40;;
1380;SDS011;684;48.342;10.096;2023-11-18T06:11:10;5.93;;;3.57;;
1380;SDS011;684;48.342;10.096;2023-11-18T06:13:40;7.17;;;4.40;;
1380;SDS011;684;48.342;10.096;2023-11-18T06:16:09;8.80;;;3.43;;
1380;SDS011;684;48.342;10.096;2023-11-18T06:18:39;7.47;;;4.23;;
1380;SDS011;684;48.342;10.096;2023-11-18T06:21:06;7.63;;;4.50;;
1380;SDS011;684;48.342;10.096;2023-11-18T06:23:33;7.83;;;4.50;;
1380;SDS011;684;48.342;10.096;2023-11-18T06:26:02;8.40;;;4.40;;
1380;SDS011;684;48.342;10.096;2023-11-18T06:28:29;7.60;;;4.70;;
1380;SDS011;684;48.342;10.096;2023-11-18T06:30:56;8.70;;;5.23;;
1380;SDS011;684;48.342;10.096;2023-11-18T06:33:23;8.40;;;4.90;;
1380;SDS011;684;48.342;10.096;2023-11-18T06:35:52;8.97;;;5.63;;
1380;SDS011;684;48.342;10.096;2023-11-18T06:38:21;9.30;;;5.13;;
1380;SDS011;684;48.342;10.096;2023-11-18T06:40:49;13.23;;;6.77;;
1380;SDS011;684;48.342;10.096;2023-11-18T06:43:19;9.70;;;6.20;;
1380;SDS011;684;48.342;10.096;2023-11-18T06:45:46;10.13;;;6.30;;
1380;SDS011;684;48.342;10.096;2023-11-18T06:48:13;11.87;;;6.90;;
1380;SDS011;684;48.342;10.096;2023-11-18T06:50:44;10.33;;;7.00;;
1380;SDS011;684;48.342;10.096;2023-11-18T06:53:12;11.63;;;7.07;;
1380;SDS011;684;48.342;10.096;2023-11-18T06:55:40;11.83;;;7.30;;
1380;SDS011;684;48.342;10.096;2023-11-18T06:58:07;13.87;;;8.07;;
1380;SDS011;684;48.342;10.096;2023-11-18T07:00:36;11.20;;;7.33;;
1380;SDS011;684;48.342;10.096;2023-11-18T07:03:03;11.43;;;7.77;;
1380;SDS011;684;48.342;10.096;2023-11-18T07:05:30;10.33;;;7.30;;
1380;SDS011;684;48.342;10.096;2023-11-18T07:07:57;12.10;;;7.70;;
1380;SDS011;684;48.342;10.096;2023-11-18T07:10:24;12.17;;;8.30;;
1380;SDS011;684;48.342;10.096;2023-11-18T07:12:52;14.73;;;8.50;;
1380;SDS011;684;48.342;10.096;2023-11-18T07:15:19;13.73;;;8.90;;
1380;SDS011;684;48.342;10.096;2023-11-18T07:17:48;14.70;;;9.07;;
1380;SDS011;684;48.342;10.096;2023-11-18T07:20:14;14.90;;;9.47;;
1380;SDS011;684;48.342;10.096;2023-11-18T07:22:42;13.30;;;9.47;;
1380;SDS011;684;48.342;10.096;2023-11-18T07:25:08;13.80;;;9.13;;
1380;SDS011;684;48.342;10.096;2023-11-18T07:27:35;14.67;;;8.87;;
1380;SDS011;684;48.342;10.096;2023-11-18T07:30:02;11.20;;;7.87;;
1380;SDS011;684;48.342;10.096;2023-11-18T07:32:35;12.20;;;8.10;;
1380;SDS011;684;48.342;10.096;2023-11-18T07:35:04;13.10;;;8.73;;
1380;SDS011;684;48.342;10.096;2023-11-18T07:40:01;13.77;;;8.67;;
1380;SDS011;684;48.342;10.096;2023-11-18T07:42:30;10.93;;;7.93;;
1380;SDS011;684;48.342;10.096;2023-11-18T07:44:59;12.33;;;8.70;;
1380;SDS011;684;48.342;10.096;2023-11-18T07:47:28;13.10;;;8.27;;
1380;SDS011;684;48.342;10.096;2023-11-18T07:49:56;12.77;;;9.00;;
1380;SDS011;684;48.342;10.096;2023-11-18T07:52:25;14.03;;;8.40;;
1380;SDS011;684;48.342;10.096;2023-11-18T07:54:54;11.90;;;7.87;;
1380;SDS011;684;48.342;10.096;2023-11-18T07:57:21;10.03;;;6.80;;
1380;SDS011;684;48.342;10.096;2023-11-18T07:59:49;10.10;;;7.03;;
1380;SDS011;684;48.342;10.096;2023-11-18T08:02:19;10.80;;;7.63;;
1380;SDS011;684;48.342;10.096;2023-11-18T08:04:45;9.60;;;7.13;;
1380;SDS011;684;48.342;10.096;2023-11-18T08:07:12;9.90;;;6.57;;
1380;SDS011;684;48.342;10.096;2023-11-18T08:09:40;12.50;;;7.90;;
1380;SDS011;684;48.342;10.096;2023-11-18T08:12:08;11.23;;;6.50;;
1380;SDS011;684;48.342;10.096;2023-11-18T08:14:35;10.93;;;7.27;;
1380;SDS011;684;48.342;10.096;2023-11-18T08:17:02;12.17;;;7.17;;
1380;SDS011;684;48.342;10.096;2023-11-18T08:19:30;10.33;;;7.57;;
1380;SDS011;684;48.342;10.096;2023-11-18T08:21:59;9.63;;;6.73;;
1380;SDS011;684;48.342;10.096;2023-11-18T08:24:26;12.10;;;7.63;;
1380;SDS011;684;48.342;10.096;2023-11-18T08:26:55;11.07;;;7.40;;
1380;SDS011;684;48.342;10.096;2023-11-18T08:29:22;13.00;;;7.43;;
1380;SDS011;684;48.342;10.096;2023-11-18T08:31:49;9.20;;;6.70;;
1380;SDS011;684;48.342;10.096;2023-11-18T08:34:16;10.30;;;6.70;;
1380;SDS011;684;48.342;10.096;2023-11-18T08:36:43;8.63;;;5.90;;
1380;SDS011;684;48.342;10.096;2023-11-18T08:39:11;9.80;;;6.70;;
1380;SDS011;684;48.342;10.096;2023-11-18T08:41:41;9.10;;;6.20;;
1380;SDS011;684;48.342;10.096;2023-11-18T08:44:10;10.77;;;6.80;;
1380;SDS011;684;48.342;10.096;2023-11-18T08:46:38;8.70;;;6.37;;
1380;SDS011;684;48.342;10.096;2023-11-18T08:49:05;9.53;;;6.37;;
1380;SDS011;684;48.342;10.096;2023-11-18T08:51:36;8.50;;;5.53;;
1380;SDS011;684;48.342;10.096;2023-11-18T08:54:03;8.23;;;5.00;;
1380;SDS011;684;48.342;10.096;2023-11-18T08:56:47;10.10;;;6.40;;
1380;SDS011;684;48.342;10.096;2023-11-18T08:59:17;7.80;;;5.03;;
1380;SDS011;684;48.342;10.096;2023-11-18T09:01:45;8.53;;;5.67;;
1380;SDS011;684;48.342;10.096;2023-11-18T09:04:14;9.10;;;5.83;;
1380;SDS011;684;48.342;10.096;2023-11-18T09:06:44;8.90;;;6.10;;
1380;SDS011;684;48.342;10.096;2023-11-18T09:09:13;9.10;;;5.33;;
1380;SDS011;684;48.342;10.096;2023-11-18T09:11:40;9.20;;;5.80;;
1380;SDS011;684;48.342;10.096;2023-11-18T09:14:07;7.53;;;5.80;;
1380;SDS011;684;48.342;10.096;2023-11-18T09:16:37;8.07;;;5.50;;
1380;SDS011;684;48.342;10.096;2023-11-18T09:19:06;7.77;;;5.07;;
1380;SDS011;684;48.342;10.096;2023-11-18T09:21:33;8.67;;;6.53;;
1380;SDS011;684;48.342;10.096;2023-11-18T09:24:01;8.50;;;5.83;;
1380;SDS011;684;48.342;10.096;2023-11-18T09:26:30;9.27;;;6.00;;
1380;SDS011;684;48.342;10.096;2023-11-18T09:28:57;8.37;;;5.63;;
1380;SDS011;684;48.342;10.096;2023-11-18T09:31:26;8.27;;;5.63;;
1380;SDS011;684;48.342;10.096;2023-11-18T09:33:54;7.47;;;4.80;;
1380;SDS011;684;48.342;10.096;2023-11-18T09:36:22;7.63;;;5.60;;
1380;SDS011;684;48.342;10.096;2023-11-18T09:38:49;8.90;;;6.47;;
1380;SDS011;684;48.342;10.096;2023-11-18T09:41:16;9.00;;;6.07;;
1380;SDS011;684;48.342;10.096;2023-11-18T09:43:43;8.63;;;6.07;;
1380;SDS011;684;48.342;10.096;2023-11-18T09:46:12;7.40;;;4.83;;
1380;SDS011;684;48.342;10.096;2023-11-18T09:48:41;11.70;;;7.53;;
1380;SDS011;684;48.342;10.096;2023-11-18T09:51:13;8.20;;;5.67;;
1380;SDS011;684;48.342;10.096;2023-11-18T09:53:43;9.03;;;5.40;;
1380;SDS011;684;48.342;10.096;2023-11-18T09:56:13;7.90;;;5.60;;
1380;SDS011;684;48.342;10.096;2023-11-18T09:58:55;9.17;;;5.80;;
1380;SDS011;684;48.342;10.096;2023-11-18T10:01:30;8.40;;;5.90;;
1380;SDS011;684;48.342;10.096;2023-11-18T10:04:04;10.20;;;6.97;;
1380;SDS011;684;48.342;10.096;2023-11-18T10:06:34;7.13;;;5.17;;
1380;SDS011;684;48.342;10.096;2023-11-18T10:09:01;6.13;;;4.70;;
1380;SDS011;684;48.342;10.096;2023-11-18T10:11:40;7.70;;;4.90;;
1380;SDS011;684;48.342;10.096;2023-11-18T10:14:08;7.30;;;5.23;;
1380;SDS011;684;48.342;10.096;2023-11-18T10:16:36;7.00;;;4.87;;
1380;SDS011;684;48.342;10.096;2023-11-18T10:19:03;8.50;;;6.10;;
1380;SDS011;684;48.342;10.096;2023-11-18T10:21:35;7.07;;;4.70;;
1380;SDS011;684;48.342;10.096;2023-11-18T10:24:05;11.27;;;6.33;;
1380;SDS011;684;48.342;10.096;2023-11-18T10:26:39;8.27;;;5.77;;
1380;SDS011;684;48.342;10.096;2023-11-18T10:29:06;8.73;;;5.77;;
1380;SDS011;684;48.342;10.096;2023-11-18T10:31:38;6.97;;;5.20;;
1380;SDS011;684;48.342;10.096;2023-11-18T10:34:10;7.07;;;5.63;;
1380;SDS011;684;48.342;10.096;2023-11-18T10:36:42;8.10;;;5.73;;
1380;SDS011;684;48.342;10.096;2023-11-18T10:39:27;7.47;;;5.03;;
1380;SDS011;684;48.342;10.096;2023-11-18T10:41:57;6.53;;;4.80;;
1380;SDS011;684;48.342;10.096;2023-11-18T10:44:25;13.63;;;6.70;;
1380;SDS011;684;48.342;10.096;2023-11-18T10:46:52;7.33;;;5.60;;
1380;SDS011;684;48.342;10.096;2023-11-18T10:49:22;6.17;;;4.63;;
1380;SDS011;684;48.342;10.096;2023-11-18T10:51:51;7.40;;;5.60;;
1380;SDS011;684;48.342;10.096;2023-11-18T10:54:18;7.07;;;4.97;;
1380;SDS011;684;48.342;10.096;2023-11-18T10:56:46;9.97;;;6.50;;
1380;SDS011;684;48.342;10.096;2023-11-18T10:59:13;7.33;;;4.80;;
1380;SDS011;684;48.342;10.096;2023-11-18T11:01:41;7.47;;;5.47;;
1380;SDS011;684;48.342;10.096;2023-11-18T11:04:09;6.60;;;5.20;;
1380;SDS011;684;48.342;10.096;2023-11-18T11:06:40;6.03;;;4.63;;
1380;SDS011;684;48.342;10.096;2023-11-18T11:09:09;7.57;;;5.53;;
1380;SDS011;684;48.342;10.096;2023-11-18T11:11:44;8.53;;;5.60;;
1380;SDS011;684;48.342;10.096;2023-11-18T11:14:14;7.47;;;4.63;;
1380;SDS011;684;48.342;10.096;2023-11-18T11:16:44;7.20;;;5.00;;
1380;SDS011;684;48.342;10.096;2023-11-18T11:19:18;10.47;;;8.50;;
1380;SDS011;684;48.342;10.096;2023-11-18T11:21:52;9.30;;;5.03;;
1380;SDS011;684;48.342;10.096;2023-11-18T11:24:40;7.37;;;5.20;;
1380;SDS011;684;48.342;10.096;2023-11-18T11:27:20;7.03;;;4.73;;
1380;SDS011;684;48.342;10.096;2023-11-18T11:30:01;7.53;;;5.50;;
1380;SDS011;684;48.342;10.096;2023-11-18T11:32:35;8.90;;;5.70;;
1380;SDS011;684;48.342;10.096;2023-11-18T11:35:10;8.17;;;5.77;;
1380;SDS011;684;48.342;10.096;2023-11-18T11:37:46;12.53;;;6.30;;
1380;SDS011;684;48.342;10.096;2023-11-18T11:40:16;9.97;;;7.40;;
1380;SDS011;684;48.342;10.096;2023-11-18T11:42:48;20.90;;;16.37;;
1380;SDS011;684;48.342;10.096;2023-11-18T11:45:20;13.50;;;10.37;;
1380;SDS011;684;48.342;10.096;2023-11-18T11:47:53;13.53;;;10.50;;
1380;SDS011;684;48.342;10.096;2023-11-18T11:50:39;9.80;;;6.40;;
1380;SDS011;684;48.342;10.096;2023-11-18T11:53:19;9.47;;;6.90;;
1380;SDS011;684;48.342;10.096;2023-11-18T11:55:53;8.90;;;6.03;;
1380;SDS011;684;48.342;10.096;2023-11-18T11:58:30;6.77;;;4.50;;
1380;SDS011;684;48.342;10.096;2023-11-18T12:01:01;21.00;;;15.37;;
1380;SDS011;684;48.342;10.096;2023-11-18T12:03:43;10.43;;;7.60;;
1380;SDS011;684;48.342;10.096;2023-11-18T12:06:13;8.73;;;6.80;;
1380;SDS011;684;48.342;10.096;2023-11-18T12:08:41;7.90;;;5.70;;
1380;SDS011;684;48.342;10.096;2023-11-18T12:11:11;7.13;;;5.20;;
1380;SDS011;684;48.342;10.096;2023-11-18T12:13:40;10.60;;;7.30;;
1380;SDS011;684;48.342;10.096;2023-11-18T12:19:34;23.03;;;15.03;;
1380;SDS011;684;48.342;10.096;2023-11-18T12:22:11;11.50;;;7.37;;
1380;SDS011;684;48.342;10.096;2023-11-18T12:28:14;9.63;;;5.73;;
1380;SDS011;684;48.342;10.096;2023-11-18T12:30:46;13.00;;;7.47;;
1380;SDS011;684;48.342;10.096;2023-11-18T12:33:22;8.03;;;6.30;;
1380;SDS011;684;48.342;10.096;2023-11-18T12:39:10;9.10;;;6.47;;
1380;SDS011;684;48.342;10.096;2023-11-18T12:44:37;6.90;;;4.80;;
1380;SDS011;684;48.342;10.096;2023-11-18T12:49:44;7.03;;;4.90;;
1380;SDS011;684;48.342;10.096;2023-11-18T12:52:15;9.20;;;5.57;;
1380;SDS011;684;48.342;10.096;2023-11-18T12:54:44;6.40;;;4.40;;
1380;SDS011;684;48.342;10.096;2023-11-18T12:57:15;10.00;;;6.70;;
1380;SDS011;684;48.342;10.096;2023-11-18T12:59:44;8.70;;;4.67;;
1380;SDS011;684;48.342;10.096;2023-11-18T13:02:11;6.20;;;4.33;;
1380;SDS011;684;48.342;10.096;2023-11-18T13:04:44;8.50;;;5.17;;
1380;SDS011;684;48.342;10.096;2023-11-18T13:07:12;9.30;;;6.70;;
1380;SDS011;684;48.342;10.096;2023-11-18T13:09:39;9.03;;;6.07;;
1380;SDS011;684;48.342;10.096;2023-11-18T13:12:09;7.50;;;5.87;;
1380;SDS011;684;48.342;10.096;2023-11-18T13:14:39;7.80;;;5.67;;
1380;SDS011;684;48.342;10.096;2023-11-18T13:17:09;9.93;;;5.50;;
1380;SDS011;684;48.342;10.096;2023-11-18T13:19:38;7.70;;;4.97;;
1380;SDS011;684;48.342;10.096;2023-11-18T13:22:06;9.50;;;4.80;;
1380;SDS011;684;48.342;10.096;2023-11-18T13:24:34;8.20;;;4.60;;
1380;SDS011;684;48.342;10.096;2023-11-18T13:27:01;10.97;;;4.50;;
1380;SDS011;684;48.342;10.096;2023-11-18T13:29:29;6.43;;;4.20;;
1380;SDS011;684;48.342;10.096;2023-11-18T13:31:56;7.37;;;4.20;;
1380;SDS011;684;48.342;10.096;2023-11-18T13:34:26;7.97;;;4.83;;
1380;SDS011;684;48.342;10.096;2023-11-18T13:36:55;9.13;;;5.03;;
1380;SDS011;684;48.342;10.096;2023-11-18T13:39:22;7.70;;;4.57;;
1380;SDS011;684;48.342;10.096;2023-11-18T13:41:52;9.43;;;6.10;;
1380;SDS011;684;48.342;10.096;2023-11-18T13:44:32;9.17;;;6.23;;
1380;SDS011;684;48.342;10.096;2023-11-18T13:47:00;6.67;;;4.87;;
1380;SDS011;684;48.342;10.096;2023-11-18T13:49:28;7.33;;;4.70;;
1380;SDS011;684;48.342;10.096;2023-11-18T13:51:56;10.40;;;5.13;;
1380;SDS011;684;48.342;10.096;2023-11-18T13:54:23;8.63;;;5.30;;
1380;SDS011;684;48.342;10.096;2023-11-18T13:56:51;21.87;;;7.20;;
1380;SDS011;684;48.342;10.096;2023-11-18T13:59:18;10.30;;;7.63;;
1380;SDS011;684;48.342;10.096;2023-11-18T14:01:45;11.27;;;7.00;;
1380;SDS011;684;48.342;10.096;2023-11-18T14:04:12;10.70;;;5.80;;
1380;SDS011;684;48.342;10.096;2023-11-18T14:06:40;11.27;;;6.50;;
1380;SDS011;684;48.342;10.096;2023-11-18T14:09:07;15.20;;;8.33;;
1380;SDS011;684;48.342;10.096;2023-11-18T14:11:36;11.20;;;7.40;;
1380;SDS011;684;48.342;10.096;2023-11-18T14:14:03;9.40;;;6.57;;
1380;SDS011;684;48.342;10.096;2023-11-18T14:16:30;8.00;;;5.10;;
1380;SDS011;684;48.342;10.096;2023-11-18T14:18:58;9.27;;;6.17;;
1380;SDS011;684;48.342;10.096;2023-11-18T14:21:25;11.07;;;7.30;;
1380;SDS011;684;48.342;10.096;2023-11-18T14:23:53;9.40;;;5.30;;
1380;SDS011;684;48.342;10.096;2023-11-18T14:26:25;7.57;;;5.33;;
1380;SDS011;684;48.342;10.096;2023-11-18T14:28:52;8.20;;;4.67;;
1380;SDS011;684;48.342;10.096;2023-11-18T14:31:19;8.10;;;5.50;;
1380;SDS011;684;48.342;10.096;2023-11-18T14:33:47;7.10;;;4.80;;
1380;SDS011;684;48.342;10.096;2023-11-18T14:36:14;7.47;;;5.40;;
1380;SDS011;684;48.342;10.096;2023-11-18T14:38:40;8.27;;;4.93;;
1380;SDS011;684;48.342;10.096;2023-11-18T14:41:09;10.63;;;4.80;;
1380;SDS011;684;48.342;10.096;2023-11-18T14:43:36;6.47;;;4.40;;
1380;SDS011;684;48.342;10.096;2023-11-18T14:46:03;6.03;;;4.13;;
1380;SDS011;684;48.342;10.096;2023-11-18T14:48:30;9.33;;;3.97;;
1380;SDS011;684;48.342;10.096;2023-11-18T14:50:57;6.23;;;3.90;;
1380;SDS011;684;48.342;10.096;2023-11-18T14:53:25;6.90;;;3.70;;
1380;SDS011;684;48.342;10.096;2023-11-18T14:55:52;8.30;;;3.90;;
1380;SDS011;684;48.342;10.096;2023-11-18T14:58:20;7.47;;;4.40;;
1380;SDS011;684;48.342;10.096;2023-11-18T15:00:47;7.27;;;4.30;;
1380;SDS011;684;48.342;10.096;2023-11-18T15:03:14;8.53;;;3.80;;
1380;SDS011;684;48.342;10.096;2023-11-18T15:05:41;6.57;;;3.47;;
1380;SDS011;684;48.342;10.096;2023-11-18T15:08:09;9.50;;;4.50;;
1380;SDS011;684;48.342;10.096;2023-11-18T15:10:39;6.90;;;3.70;;
1380;SDS011;684;48.342;10.096;2023-11-18T15:13:09;6.87;;;3.97;;
1380;SDS011;684;48.342;10.096;2023-11-18T15:15:41;6.93;;;4.23;;
1380;SDS011;684;48.342;10.096;2023-11-18T15:18:12;6.27;;;3.23;;
1380;SDS011;684;48.342;10.096;2023-11-18T15:20:42;7.50;;;3.73;;
1380;SDS011;684;48.342;10.096;2023-11-18T15:23:09;5.93;;;3.80;;
1380;SDS011;684;48.342;10.096;2023-11-18T15:25:36;5.90;;;3.50;;
1380;SDS011;684;48.342;10.096;2023-11-18T15:28:03;10.93;;;5.20;;
1380;SDS011;684;48.342;10.096;2023-11-18T15:30:34;8.50;;;5.60;;
1380;SDS011;684;48.342;10.096;2023-11-18T15:33:02;12.40;;;6.40;;
1380;SDS011;684;48.342;10.096;2023-11-18T15:35:29;8.50;;;4.80;;
1380;SDS011;684;48.342;10.096;2023-11-18T15:37:56;7.10;;;4.20;;
1380;SDS011;684;48.342;10.096;2023-11-18T15:40:23;12.10;;;4.63;;